createdAt,value
2018-09-22T00:01:11.215Z,69.00
2018-09-22T00:03:40.200Z,70.10
2018-09-22T00:06:09.137Z,70.80
2018-09-22T00:08:38.263Z,71.80
2018-09-22T00:11:07.219Z,72.90
2018-09-22T00:13:36.174Z,72.70
2018-09-22T00:16:05.165Z,71.80
2018-09-22T00:18:34.112Z,72.70
2018-09-22T00:21:03.078Z,72.80
2018-09-22T00:23:32.247Z,72.70
2018-09-22T00:26:01.348Z,73.10
2018-09-22T00:28:30.305Z,73.00
2018-09-22T00:30:59.256Z,72.50
2018-09-22T00:33:28.426Z,72.10
2018-09-22T00:35:58.346Z,73.20
2018-09-22T00:38:27.300Z,73.10
2018-09-22T00:40:56.249Z,72.50
2018-09-22T00:43:25.281Z,72.30
2018-09-22T00:45:54.237Z,72.20
2018-09-22T00:48:23.194Z,71.80
2018-09-22T00:50:52.114Z,71.70
2018-09-22T00:53:21.053Z,70.50
2018-09-22T00:55:49.994Z,71.40
2018-09-22T00:58:18.971Z,71.60
2018-09-22T01:00:47.935Z,71.70
2018-09-22T01:03:16.880Z,71.50
2018-09-22T01:05:45.961Z,70.90
2018-09-22T01:08:15.803Z,70.50
2018-09-22T01:10:44.742Z,70.60
2018-09-22T01:13:13.692Z,71.30
2018-09-22T01:15:42.854Z,71.00
2018-09-22T01:18:11.804Z,71.00
2018-09-22T01:20:40.799Z,71.00
2018-09-22T01:23:09.752Z,70.90
2018-09-22T01:25:39.248Z,71.10
2018-09-22T01:28:08.213Z,71.70
2018-09-22T01:30:37.139Z,72.00
2018-09-22T01:33:06.149Z,72.20
2018-09-22T01:35:35.069Z,72.10
2018-09-22T01:38:04.015Z,72.70
2018-09-22T01:40:32.962Z,72.60
2018-09-22T01:43:02.416Z,72.70
2018-09-22T01:45:31.364Z,72.90
2018-09-22T01:48:00.344Z,73.90
2018-09-22T01:50:29.280Z,74.80
2018-09-22T01:52:58.220Z,74.20
2018-09-22T01:55:27.306Z,74.60
2018-09-22T01:57:56.275Z,75.00
2018-09-22T02:00:25.204Z,75.00
2018-09-22T02:02:54.228Z,74.90
2018-09-22T02:05:23.189Z,75.00
2018-09-22T02:07:52.403Z,75.00
2018-09-22T02:10:21.382Z,74.90
2018-09-22T02:12:50.385Z,75.00
2018-09-22T02:15:19.333Z,75.30
2018-09-22T02:17:48.273Z,75.20
2018-09-22T02:20:17.211Z,75.50
2018-09-22T02:22:46.249Z,75.70
2018-09-22T02:25:15.164Z,75.90
2018-09-22T02:27:44.094Z,76.00
2018-09-22T02:30:13.081Z,76.20
2018-09-22T02:32:41.998Z,76.00
2018-09-22T02:35:10.948Z,76.00
2018-09-22T02:37:39.874Z,76.30
2018-09-22T02:40:08.813Z,75.90
2018-09-22T02:42:37.740Z,76.30
2018-09-22T02:45:07.218Z,76.30
2018-09-22T02:47:36.160Z,76.40
2018-09-22T02:50:05.508Z,76.50
2018-09-22T02:52:34.436Z,76.90
2018-09-22T02:55:03.372Z,76.60
2018-09-22T02:57:32.288Z,76.50
2018-09-22T03:00:01.237Z,76.40
2018-09-22T03:02:30.183Z,76.30
2018-09-22T03:04:59.127Z,76.30
2018-09-22T03:07:28.069Z,76.60
2018-09-22T03:09:57.656Z,76.80
2018-09-22T03:12:26.727Z,76.60
2018-09-22T03:14:55.680Z,76.80
2018-09-22T03:17:24.620Z,76.70
2018-09-22T03:19:53.625Z,77.00
2018-09-22T03:22:22.898Z,77.30
2018-09-22T03:24:51.855Z,77.40
2018-09-22T03:27:20.772Z,77.40
2018-09-22T03:29:49.720Z,77.70
2018-09-22T03:32:18.677Z,77.80
2018-09-22T03:34:47.714Z,77.80
2018-09-22T03:37:16.633Z,77.90
2018-09-22T03:39:45.586Z,77.70
2018-09-22T03:42:14.509Z,78.50
2018-09-22T03:44:43.456Z,77.80
2018-09-22T03:47:12.368Z,78.00
2018-09-22T03:49:41.318Z,78.00
2018-09-22T03:52:10.280Z,78.50
2018-09-22T03:54:40.386Z,78.20
2018-09-22T03:57:09.298Z,78.00
2018-09-22T03:59:38.242Z,78.20
2018-09-22T04:02:07.185Z,78.00
2018-09-22T04:04:36.145Z,78.20
2018-09-22T04:07:05.173Z,78.20
2018-09-22T04:09:34.118Z,78.50
2018-09-22T04:12:03.117Z,78.50
2018-09-22T04:14:32.120Z,78.70
2018-09-22T04:17:02.239Z,78.90
2018-09-22T04:19:31.200Z,78.30
2018-09-22T04:22:00.151Z,79.00
2018-09-22T04:24:29.378Z,79.30
2018-09-22T04:26:58.300Z,79.00
2018-09-22T04:29:27.266Z,79.20
2018-09-22T04:31:56.253Z,79.50
2018-09-22T04:34:25.235Z,79.60
2018-09-22T04:36:54.169Z,79.60
2018-09-22T04:39:23.187Z,79.60
2018-09-22T04:41:52.125Z,79.20
2018-09-22T04:44:21.100Z,79.40
2018-09-22T04:46:50.020Z,79.60
2018-09-22T04:49:18.965Z,79.80
2018-09-22T04:51:47.881Z,80.00
2018-09-22T04:54:16.957Z,80.00
2018-09-22T04:56:45.909Z,80.10
2018-09-22T04:59:14.849Z,80.10
2018-09-22T05:01:43.792Z,80.00
2018-09-22T05:04:12.712Z,80.00
2018-09-22T05:06:41.664Z,79.80
2018-09-22T05:09:12.275Z,80.10
2018-09-22T05:11:41.448Z,80.00
2018-09-22T05:14:10.578Z,80.10
2018-09-22T05:16:39.507Z,80.20
2018-09-22T05:19:08.466Z,80.40
2018-09-22T05:21:37.517Z,81.00
2018-09-22T05:24:06.514Z,80.40
2018-09-22T05:26:35.577Z,80.40
2018-09-22T05:29:04.760Z,80.30
2018-09-22T05:31:33.743Z,80.20
2018-09-22T05:34:02.660Z,80.30
2018-09-22T05:36:31.654Z,80.50
2018-09-22T05:39:01.459Z,80.50
